sensor_id;sensor_type;location;lat;lon;timestamp;pressure;altitude;pressure_sealevel;temperature;humidity
71151;BME280;59071;42.138;24.768;2023-04-27T00:01:09;99127.16;;;13.53;50.87
71151;BME280;59071;42.138;24.768;2023-04-27T00:03:36;99136.72;;;13.48;50.99
71151;BME280;59071;42.138;24.768;2023-04-27T00:06:01;99135.13;;;13.64;50.77
71151;BME280;59071;42.138;24.768;2023-04-27T00:08:27;99141.38;;;13.70;50.17
71151;BME280;59071;42.138;24.768;2023-04-27T00:10:53;99149.41;;;13.70;50.50
71151;BME280;59071;42.138;24.768;2023-04-27T00:13:18;99140.97;;;13.90;49.69
71151;BME280;59071;42.138;24.768;2023-04-27T00:15:43;99153.28;;;13.91;49.84
71151;BME280;59071;42.138;24.768;2023-04-27T00:18:09;99160.78;;;13.37;50.67
71151;BME280;59071;42.138;24.768;2023-04-27T00:20:35;99164.81;;;13.51;50.97
71151;BME280;59071;42.138;24.768;2023-04-27T00:23:00;99159.84;;;13.19;51.91
71151;BME280;59071;42.138;24.768;2023-04-27T00:25:25;99165.56;;;13.35;51.87
71151;BME280;59071;42.138;24.768;2023-04-27T00:27:51;99166.31;;;13.87;50.84
71151;BME280;59071;42.138;24.768;2023-04-27T00:30:16;99172.22;;;14.18;50.35
71151;BME280;59071;42.138;24.768;2023-04-27T00:32:41;99171.72;;;13.76;51.59
71151;BME280;59071;42.138;24.768;2023-04-27T00:35:07;99183.59;;;14.42;49.64
71151;BME280;59071;42.138;24.768;2023-04-27T00:37:32;99181.94;;;14.07;51.35
71151;BME280;59071;42.138;24.768;2023-04-27T00:39:57;99186.72;;;14.05;51.00
71151;BME280;59071;42.138;24.768;2023-04-27T00:42:23;99185.88;;;13.88;52.18
71151;BME280;59071;42.138;24.768;2023-04-27T00:44:49;99191.56;;;13.27;53.78
71151;BME280;59071;42.138;24.768;2023-04-27T00:47:14;99186.25;;;13.16;54.14
71151;BME280;59071;42.138;24.768;2023-04-27T00:49:41;99188.09;;;13.39;53.60
71151;BME280;59071;42.138;24.768;2023-04-27T00:52:06;99197.03;;;12.97;54.00
71151;BME280;59071;42.138;24.768;2023-04-27T00:54:31;99196.09;;;13.03;54.05
71151;BME280;59071;42.138;24.768;2023-04-27T00:56:57;99197.25;;;12.84;54.13
71151;BME280;59071;42.138;24.768;2023-04-27T00:59:23;99192.25;;;13.11;54.18
71151;BME280;59071;42.138;24.768;2023-04-27T01:01:49;99193.69;;;13.14;53.97
71151;BME280;59071;42.138;24.768;2023-04-27T01:04:15;99193.19;;;13.05;53.93
71151;BME280;59071;42.138;24.768;2023-04-27T01:06:41;99201.44;;;13.27;53.51
71151;BME280;59071;42.138;24.768;2023-04-27T01:09:07;99205.44;;;13.65;52.86
71151;BME280;59071;42.138;24.768;2023-04-27T01:11:33;99207.13;;;13.54;52.05
71151;BME280;59071;42.138;24.768;2023-04-27T01:14:01;99212.47;;;13.30;52.96
71151;BME280;59071;42.138;24.768;2023-04-27T01:16:27;99218.59;;;13.66;52.23
71151;BME280;59071;42.138;24.768;2023-04-27T01:18:53;99216.31;;;12.76;52.93
71151;BME280;59071;42.138;24.768;2023-04-27T01:21:18;99215.38;;;13.17;51.94
71151;BME280;59071;42.138;24.768;2023-04-27T01:23:43;99226.19;;;12.99;51.61
71151;BME280;59071;42.138;24.768;2023-04-27T01:26:08;99227.13;;;13.16;51.65
71151;BME280;59071;42.138;24.768;2023-04-27T01:28:35;99227.69;;;13.42;50.52
71151;BME280;59071;42.138;24.768;2023-04-27T01:31:01;99230.69;;;12.98;50.92
71151;BME280;59071;42.138;24.768;2023-04-27T01:33:26;99237.06;;;12.74;51.28
71151;BME280;59071;42.138;24.768;2023-04-27T01:35:51;99230.03;;;13.03;50.45
71151;BME280;59071;42.138;24.768;2023-04-27T01:38:17;99226.84;;;12.59;50.74
71151;BME280;59071;42.138;24.768;2023-04-27T01:40:42;99240.78;;;12.84;49.99
71151;BME280;59071;42.138;24.768;2023-04-27T01:43:07;99239.72;;;12.62;50.02
71151;BME280;59071;42.138;24.768;2023-04-27T01:45:32;99246.53;;;12.58;50.13
71151;BME280;59071;42.138;24.768;2023-04-27T01:47:58;99249.50;;;12.68;49.80
71151;BME280;59071;42.138;24.768;2023-04-27T01:50:23;99242.38;;;12.62;50.03
71151;BME280;59071;42.138;24.768;2023-04-27T01:52:48;99245.41;;;12.77;49.51
71151;BME280;59071;42.138;24.768;2023-04-27T01:55:13;99250.19;;;12.75;49.33
71151;BME280;59071;42.138;24.768;2023-04-27T01:57:39;99249.56;;;12.49;50.17
71151;BME280;59071;42.138;24.768;2023-04-27T02:00:04;99247.88;;;12.79;48.74
71151;BME280;59071;42.138;24.768;2023-04-27T02:02:30;99247.50;;;12.75;49.51
71151;BME280;59071;42.138;24.768;2023-04-27T02:04:55;99260.34;;;12.97;48.52
71151;BME280;59071;42.138;24.768;2023-04-27T02:07:20;99259.91;;;12.69;49.36
71151;BME280;59071;42.138;24.768;2023-04-27T02:09:46;99258.41;;;12.74;49.66
71151;BME280;59071;42.138;24.768;2023-04-27T02:12:11;99263.75;;;12.74;49.19
71151;BME280;59071;42.138;24.768;2023-04-27T02:14:36;99263.09;;;12.36;49.77
71151;BME280;59071;42.138;24.768;2023-04-27T02:17:01;99269.28;;;13.26;47.88
71151;BME280;59071;42.138;24.768;2023-04-27T02:19:27;99272.97;;;13.01;48.33
71151;BME280;59071;42.138;24.768;2023-04-27T02:21:52;99270.44;;;13.18;47.42
71151;BME280;59071;42.138;24.768;2023-04-27T02:24:18;99267.88;;;13.11;47.86
71151;BME280;59071;42.138;24.768;2023-04-27T02:26:43;99275.22;;;13.40;47.04
71151;BME280;59071;42.138;24.768;2023-04-27T02:29:08;99279.63;;;13.10;48.25
71151;BME280;59071;42.138;24.768;2023-04-27T02:31:33;99275.88;;;12.88;48.21
71151;BME280;59071;42.138;24.768;2023-04-27T02:33:59;99271.16;;;13.37;47.08
71151;BME280;59071;42.138;24.768;2023-04-27T02:36:24;99273.25;;;13.47;47.08
71151;BME280;59071;42.138;24.768;2023-04-27T02:38:50;99273.75;;;12.78;47.80
71151;BME280;59071;42.138;24.768;2023-04-27T02:41:15;99278.28;;;12.36;48.92
71151;BME280;59071;42.138;24.768;2023-04-27T02:43:40;99283.00;;;13.18;47.49
71151;BME280;59071;42.138;24.768;2023-04-27T02:46:05;99275.06;;;13.11;47.03
71151;BME280;59071;42.138;24.768;2023-04-27T02:48:31;99282.28;;;13.22;46.46
71151;BME280;59071;42.138;24.768;2023-04-27T02:50:56;99290.06;;;13.24;46.78
71151;BME280;59071;42.138;24.768;2023-04-27T02:53:22;99281.00;;;13.13;46.98
71151;BME280;59071;42.138;24.768;2023-04-27T02:55:47;99284.03;;;13.17;46.34
71151;BME280;59071;42.138;24.768;2023-04-27T02:58:13;99294.28;;;13.43;46.20
71151;BME280;59071;42.138;24.768;2023-04-27T03:00:38;99298.66;;;13.26;46.51
71151;BME280;59071;42.138;24.768;2023-04-27T03:03:05;99298.66;;;13.14;46.48
71151;BME280;59071;42.138;24.768;2023-04-27T03:05:30;99291.53;;;12.84;47.06
71151;BME280;59071;42.138;24.768;2023-04-27T03:07:55;99295.38;;;12.88;46.65
71151;BME280;59071;42.138;24.768;2023-04-27T03:10:21;99297.75;;;13.20;46.61
71151;BME280;59071;42.138;24.768;2023-04-27T03:12:46;99293.56;;;13.72;45.32
71151;BME280;59071;42.138;24.768;2023-04-27T03:15:11;99303.44;;;13.83;45.19
71151;BME280;59071;42.138;24.768;2023-04-27T03:17:36;99314.34;;;13.93;44.67
71151;BME280;59071;42.138;24.768;2023-04-27T03:20:02;99302.84;;;13.81;44.41
71151;BME280;59071;42.138;24.768;2023-04-27T03:22:28;99311.00;;;13.62;44.54
71151;BME280;59071;42.138;24.768;2023-04-27T03:24:54;99307.50;;;13.74;44.75
71151;BME280;59071;42.138;24.768;2023-04-27T03:27:20;99312.97;;;13.79;43.76
71151;BME280;59071;42.138;24.768;2023-04-27T03:29:45;99316.03;;;13.35;45.39
71151;BME280;59071;42.138;24.768;2023-04-27T03:32:10;99315.63;;;13.08;46.10
71151;BME280;59071;42.138;24.768;2023-04-27T03:34:35;99321.00;;;12.78;46.56
71151;BME280;59071;42.138;24.768;2023-04-27T03:37:01;99318.16;;;13.03;46.44
71151;BME280;59071;42.138;24.768;2023-04-27T03:39:26;99312.31;;;12.82;46.59
71151;BME280;59071;42.138;24.768;2023-04-27T03:41:52;99323.81;;;13.37;45.67
71151;BME280;59071;42.138;24.768;2023-04-27T03:44:17;99319.84;;;13.75;44.49
71151;BME280;59071;42.138;24.768;2023-04-27T03:46:42;99327.28;;;13.49;45.38
71151;BME280;59071;42.138;24.768;2023-04-27T03:49:07;99327.97;;;13.33;46.35
71151;BME280;59071;42.138;24.768;2023-04-27T03:51:33;99331.03;;;13.48;45.03
71151;BME280;59071;42.138;24.768;2023-04-27T03:53:58;99330.97;;;13.24;45.83
71151;BME280;59071;42.138;24.768;2023-04-27T03:56:24;99332.41;;;13.51;45.35
71151;BME280;59071;42.138;24.768;2023-04-27T03:58:49;99344.72;;;13.63;45.12
71151;BME280;59071;42.138;24.768;2023-04-27T04:01:15;99333.91;;;13.70;45.13
71151;BME280;59071;42.138;24.768;2023-04-27T04:03:41;99343.97;;;13.21;45.38
71151;BME280;59071;42.138;24.768;2023-04-27T04:06:06;99344.59;;;13.82;44.21
71151;BME280;59071;42.138;24.768;2023-04-27T04:08:31;99347.81;;;14.07;43.77
71151;BME280;59071;42.138;24.768;2023-04-27T04:10:58;99353.75;;;14.10;43.10
71151;BME280;59071;42.138;24.768;2023-04-27T04:13:23;99351.81;;;13.81;44.41
71151;BME280;59071;42.138;24.768;2023-04-27T04:15:48;99357.28;;;13.75;45.05
71151;BME280;59071;42.138;24.768;2023-04-27T04:18:14;99357.28;;;13.39;45.10
71151;BME280;59071;42.138;24.768;2023-04-27T04:20:39;99361.72;;;13.03;46.31
71151;BME280;59071;42.138;24.768;2023-04-27T04:23:04;99362.47;;;13.34;45.65
71151;BME280;59071;42.138;24.768;2023-04-27T04:25:30;99371.78;;;13.55;44.89
71151;BME280;59071;42.138;24.768;2023-04-27T04:27:56;99374.00;;;13.35;45.24
71151;BME280;59071;42.138;24.768;2023-04-27T04:30:21;99368.66;;;13.35;46.89
71151;BME280;59071;42.138;24.768;2023-04-27T04:32:47;99375.03;;;14.04;43.82
71151;BME280;59071;42.138;24.768;2023-04-27T04:35:12;99373.88;;;14.00;43.93
71151;BME280;59071;42.138;24.768;2023-04-27T04:37:38;99376.81;;;13.87;44.21
71151;BME280;59071;42.138;24.768;2023-04-27T04:40:04;99372.28;;;13.99;43.93
71151;BME280;59071;42.138;24.768;2023-04-27T04:42:33;99377.50;;;13.59;44.50
71151;BME280;59071;42.138;24.768;2023-04-27T04:44:58;99383.91;;;13.81;43.93
71151;BME280;59071;42.138;24.768;2023-04-27T04:47:23;99386.94;;;13.61;44.35
71151;BME280;59071;42.138;24.768;2023-04-27T04:49:48;99389.38;;;13.86;44.22
71151;BME280;59071;42.138;24.768;2023-04-27T04:52:14;99392.56;;;14.24;43.41
71151;BME280;59071;42.138;24.768;2023-04-27T04:54:39;99393.06;;;13.85;44.07
71151;BME280;59071;42.138;24.768;2023-04-27T04:57:04;99391.78;;;13.41;44.87
71151;BME280;59071;42.138;24.768;2023-04-27T04:59:32;99399.00;;;13.64;44.69
71151;BME280;59071;42.138;24.768;2023-04-27T05:01:57;99398.06;;;13.58;44.19
71151;BME280;59071;42.138;24.768;2023-04-27T05:04:22;99405.50;;;13.92;44.08
71151;BME280;59071;42.138;24.768;2023-04-27T05:06:48;99412.84;;;14.08;43.07
71151;BME280;59071;42.138;24.768;2023-04-27T05:09:13;99414.34;;;14.04;43.19
71151;BME280;59071;42.138;24.768;2023-04-27T05:11:41;99413.13;;;14.35;42.90
71151;BME280;59071;42.138;24.768;2023-04-27T05:14:06;99412.84;;;14.08;43.27
71151;BME280;59071;42.138;24.768;2023-04-27T05:16:32;99415.84;;;13.53;43.72
71151;BME280;59071;42.138;24.768;2023-04-27T05:18:57;99415.19;;;13.81;43.83
71151;BME280;59071;42.138;24.768;2023-04-27T05:21:22;99428.41;;;14.23;42.96
71151;BME280;59071;42.138;24.768;2023-04-27T05:23:48;99424.84;;;14.98;41.26
71151;BME280;59071;42.138;24.768;2023-04-27T05:26:13;99419.78;;;15.64;40.02
71151;BME280;59071;42.138;24.768;2023-04-27T05:28:39;99429.47;;;15.03;40.95
71151;BME280;59071;42.138;24.768;2023-04-27T05:31:05;99428.19;;;14.77;41.34
71151;BME280;59071;42.138;24.768;2023-04-27T05:33:30;99433.63;;;14.41;42.24
71151;BME280;59071;42.138;24.768;2023-04-27T05:35:56;99432.16;;;14.74;42.19
71151;BME280;59071;42.138;24.768;2023-04-27T05:38:21;99426.59;;;14.64;41.75
71151;BME280;59071;42.138;24.768;2023-04-27T05:40:46;99404.22;;;14.18;42.57
71151;BME280;59071;42.138;24.768;2023-04-27T05:43:11;99435.88;;;14.21;42.85
71151;BME280;59071;42.138;24.768;2023-04-27T05:45:40;99436.44;;;14.23;42.57
71151;BME280;59071;42.138;24.768;2023-04-27T05:48:05;99442.56;;;14.47;41.72
71151;BME280;59071;42.138;24.768;2023-04-27T05:50:31;99437.31;;;14.52;41.97
71151;BME280;59071;42.138;24.768;2023-04-27T05:52:56;99442.00;;;14.57;41.29
71151;BME280;59071;42.138;24.768;2023-04-27T05:55:21;99440.38;;;14.44;41.55
71151;BME280;59071;42.138;24.768;2023-04-27T05:57:47;99447.94;;;14.35;41.84
71151;BME280;59071;42.138;24.768;2023-04-27T06:00:12;99459.69;;;14.34;41.66
71151;BME280;59071;42.138;24.768;2023-04-27T06:02:39;99450.06;;;13.86;42.50
71151;BME280;59071;42.138;24.768;2023-04-27T06:05:04;99461.31;;;14.35;41.45
71151;BME280;59071;42.138;24.768;2023-04-27T06:07:30;99456.69;;;14.31;41.83
71151;BME280;59071;42.138;24.768;2023-04-27T06:09:56;99461.47;;;13.81;42.57
71151;BME280;59071;42.138;24.768;2023-04-27T06:12:21;99462.38;;;14.11;42.36
71151;BME280;59071;42.138;24.768;2023-04-27T06:14:46;99465.53;;;14.19;42.12
71151;BME280;59071;42.138;24.768;2023-04-27T06:17:11;99462.25;;;14.41;41.12
71151;BME280;59071;42.138;24.768;2023-04-27T06:19:37;99454.91;;;14.60;40.76
71151;BME280;59071;42.138;24.768;2023-04-27T06:22:02;99462.34;;;14.58;41.12
71151;BME280;59071;42.138;24.768;2023-04-27T06:24:28;99455.47;;;14.62;41.12
71151;BME280;59071;42.138;24.768;2023-04-27T06:26:53;99457.47;;;14.43;41.01
71151;BME280;59071;42.138;24.768;2023-04-27T06:29:18;99459.16;;;14.20;41.33
71151;BME280;59071;42.138;24.768;2023-04-27T06:31:44;99456.56;;;14.14;41.46
71151;BME280;59071;42.138;24.768;2023-04-27T06:34:09;99457.56;;;14.48;40.89
71151;BME280;59071;42.138;24.768;2023-04-27T06:36:35;99457.03;;;13.87;41.79
71151;BME280;59071;42.138;24.768;2023-04-27T06:39:00;99464.72;;;14.31;41.59
71151;BME280;59071;42.138;24.768;2023-04-27T06:41:26;99458.53;;;14.42;41.38
71151;BME280;59071;42.138;24.768;2023-04-27T06:43:51;99461.22;;;14.06;40.92
71151;BME280;59071;42.138;24.768;2023-04-27T06:46:17;99465.97;;;14.92;40.34
71151;BME280;59071;42.138;24.768;2023-04-27T06:48:42;99466.44;;;15.47;39.44
71151;BME280;59071;42.138;24.768;2023-04-27T06:51:11;99462.88;;;15.12;39.72
71151;BME280;59071;42.138;24.768;2023-04-27T06:53:37;99468.38;;;15.05;39.65
71151;BME280;59071;42.138;24.768;2023-04-27T06:56:02;99470.53;;;15.20;39.25
71151;BME280;59071;42.138;24.768;2023-04-27T06:58:27;99467.19;;;15.13;39.95
71151;BME280;59071;42.138;24.768;2023-04-27T07:00:53;99464.75;;;15.57;39.58
71151;BME280;59071;42.138;24.768;2023-04-27T07:03:19;99456.19;;;15.60;39.72
71151;BME280;59071;42.138;24.768;2023-04-27T07:05:44;99464.00;;;15.45;39.92
71151;BME280;59071;42.138;24.768;2023-04-27T07:08:10;99468.00;;;15.14;40.98
71151;BME280;59071;42.138;24.768;2023-04-27T07:10:36;99468.63;;;15.67;39.25
71151;BME280;59071;42.138;24.768;2023-04-27T07:13:01;99465.41;;;15.81;39.50
71151;BME280;59071;42.138;24.768;2023-04-27T07:15:26;99465.56;;;15.58;39.22
71151;BME280;59071;42.138;24.768;2023-04-27T07:17:52;99465.31;;;15.42;39.87
71151;BME280;59071;42.138;24.768;2023-04-27T07:20:20;99468.28;;;15.29;39.90
71151;BME280;59071;42.138;24.768;2023-04-27T07:22:45;99459.19;;;15.47;39.56
71151;BME280;59071;42.138;24.768;2023-04-27T07:25:11;99469.66;;;15.94;39.24
71151;BME280;59071;42.138;24.768;2023-04-27T07:27:36;99464.69;;;16.03;39.28
71151;BME280;59071;42.138;24.768;2023-04-27T07:30:02;99464.75;;;15.57;39.72
71151;BME280;59071;42.138;24.768;2023-04-27T07:32:27;99461.59;;;15.94;38.92
71151;BME280;59071;42.138;24.768;2023-04-27T07:34:56;99461.59;;;16.33;38.44
71151;BME280;59071;42.138;24.768;2023-04-27T07:37:22;99468.94;;;16.38;38.67
71151;BME280;59071;42.138;24.768;2023-04-27T07:39:48;99469.44;;;16.57;37.82
71151;BME280;59071;42.138;24.768;2023-04-27T07:42:14;99471.84;;;16.80;37.83
71151;BME280;59071;42.138;24.768;2023-04-27T07:44:40;99465.03;;;17.44;37.44
71151;BME280;59071;42.138;24.768;2023-04-27T07:47:06;99467.00;;;16.77;37.30
71151;BME280;59071;42.138;24.768;2023-04-27T07:49:32;99461.13;;;16.80;37.66
71151;BME280;59071;42.138;24.768;2023-04-27T07:51:58;99465.34;;;16.54;37.04
71151;BME280;59071;42.138;24.768;2023-04-27T07:54:23;99471.00;;;16.53;37.51
71151;BME280;59071;42.138;24.768;2023-04-27T07:56:48;99464.31;;;16.77;36.77
71151;BME280;59071;42.138;24.768;2023-04-27T07:59:14;99466.00;;;16.61;37.18
71151;BME280;59071;42.138;24.768;2023-04-27T08:01:39;99467.94;;;17.10;36.50
71151;BME280;59071;42.138;24.768;2023-04-27T08:04:05;99471.03;;;17.24;35.92
71151;BME280;59071;42.138;24.768;2023-04-27T08:06:30;99471.72;;;17.14;35.63
71151;BME280;59071;42.138;24.768;2023-04-27T08:08:55;99464.56;;;17.52;35.16
71151;BME280;59071;42.138;24.768;2023-04-27T08:11:24;99463.41;;;17.75;35.08
71151;BME280;59071;42.138;24.768;2023-04-27T08:13:50;99455.72;;;17.89;34.47
71151;BME280;59071;42.138;24.768;2023-04-27T08:16:16;99462.09;;;18.15;33.77
71151;BME280;59071;42.138;24.768;2023-04-27T08:18:42;99456.44;;;18.17;33.91
71151;BME280;59071;42.138;24.768;2023-04-27T08:21:07;99461.91;;;18.32;33.98
71151;BME280;59071;42.138;24.768;2023-04-27T08:23:32;99455.25;;;17.97;34.42
71151;BME280;59071;42.138;24.768;2023-04-27T08:25:58;99452.09;;;17.73;34.13
71151;BME280;59071;42.138;24.768;2023-04-27T08:28:23;99452.41;;;18.20;33.64
71151;BME280;59071;42.138;24.768;2023-04-27T08:30:49;99445.66;;;18.75;33.79
71151;BME280;59071;42.138;24.768;2023-04-27T08:33:14;99445.63;;;18.65;33.70
71151;BME280;59071;42.138;24.768;2023-04-27T08:35:39;99441.84;;;18.08;34.31
71151;BME280;59071;42.138;24.768;2023-04-27T08:38:05;99445.88;;;18.05;34.23
71151;BME280;59071;42.138;24.768;2023-04-27T08:40:30;99439.44;;;18.11;34.06
71151;BME280;59071;42.138;24.768;2023-04-27T08:42:56;99440.03;;;18.19;34.25
71151;BME280;59071;42.138;24.768;2023-04-27T08:45:22;99444.69;;;18.39;34.07
71151;BME280;59071;42.138;24.768;2023-04-27T08:47:48;99438.06;;;18.62;33.74
71151;BME280;59071;42.138;24.768;2023-04-27T08:50:13;99434.94;;;18.90;34.24
71151;BME280;59071;42.138;24.768;2023-04-27T08:52:38;99431.25;;;19.27;32.69
71151;BME280;59071;42.138;24.768;2023-04-27T08:55:04;99423.19;;;19.79;32.13
71151;BME280;59071;42.138;24.768;2023-04-27T08:57:31;99423.72;;;19.76;31.90
71151;BME280;59071;42.138;24.768;2023-04-27T08:59:56;99421.25;;;20.00;31.63
71151;BME280;59071;42.138;24.768;2023-04-27T09:02:23;99417.75;;;19.94;31.74
71151;BME280;59071;42.138;24.768;2023-04-27T09:04:50;99410.97;;;20.07;31.63
71151;BME280;59071;42.138;24.768;2023-04-27T09:07:16;99418.13;;;20.53;30.68
71151;BME280;59071;42.138;24.768;2023-04-27T09:09:41;99411.34;;;20.55;30.16
71151;BME280;59071;42.138;24.768;2023-04-27T09:12:20;99416.56;;;20.96;30.28
71151;BME280;59071;42.138;24.768;2023-04-27T09:17:40;99410.66;;;20.24;30.47
71151;BME280;59071;42.138;24.768;2023-04-27T09:20:06;99417.00;;;20.64;29.88
71151;BME280;59071;42.138;24.768;2023-04-27T09:22:43;99408.22;;;20.22;30.09
71151;BME280;59071;42.138;24.768;2023-04-27T09:25:08;99405.47;;;21.32;29.52
71151;BME280;59071;42.138;24.768;2023-04-27T09:27:33;99404.72;;;21.61;29.69
71151;BME280;59071;42.138;24.768;2023-04-27T09:30:10;99407.56;;;22.52;28.20
71151;BME280;59071;42.138;24.768;2023-04-27T09:32:36;99404.56;;;22.05;28.56
71151;BME280;59071;42.138;24.768;2023-04-27T09:35:01;99401.41;;;21.35;29.72
71151;BME280;59071;42.138;24.768;2023-04-27T09:37:28;99390.81;;;21.73;28.71
71151;BME280;59071;42.138;24.768;2023-04-27T09:39:53;99394.88;;;21.99;28.45
71151;BME280;59071;42.138;24.768;2023-04-27T09:42:19;99394.13;;;22.18;29.02
71151;BME280;59071;42.138;24.768;2023-04-27T09:44:44;99396.63;;;22.14;27.78
71151;BME280;59071;42.138;24.768;2023-04-27T09:47:10;99397.78;;;22.32;28.00
71151;BME280;59071;42.138;24.768;2023-04-27T09:49:37;99401.50;;;21.59;28.86
71151;BME280;59071;42.138;24.768;2023-04-27T09:52:02;99407.19;;;21.23;29.01
71151;BME280;59071;42.138;24.768;2023-04-27T09:54:28;99393.31;;;20.95;29.66
71151;BME280;59071;42.138;24.768;2023-04-27T10:01:51;99407.28;;;21.47;28.59
71151;BME280;59071;42.138;24.768;2023-04-27T10:07:17;99392.44;;;21.39;28.85
71151;BME280;59071;42.138;24.768;2023-04-27T10:14:47;99394.19;;;21.59;28.79
71151;BME280;59071;42.138;24.768;2023-04-27T10:17:14;99391.53;;;21.15;29.25
71151;BME280;59071;42.138;24.768;2023-04-27T10:19:40;99389.84;;;22.12;28.16
71151;BME280;59071;42.138;24.768;2023-04-27T10:22:05;99393.06;;;22.43;27.66
71151;BME280;59071;42.138;24.768;2023-04-27T10:24:36;99384.78;;;20.73;29.30
71151;BME280;59071;42.138;24.768;2023-04-27T10:27:05;99402.09;;;20.01;31.74
71151;BME280;59071;42.138;24.768;2023-04-27T10:29:41;99396.25;;;20.49;30.34
71151;BME280;59071;42.138;24.768;2023-04-27T10:32:08;99398.59;;;19.70;30.62
71151;BME280;59071;42.138;24.768;2023-04-27T10:34:34;99388.66;;;20.46;29.82
71151;BME280;59071;42.138;24.768;2023-04-27T10:37:18;99379.56;;;20.86;29.54
71151;BME280;59071;42.138;24.768;2023-04-27T10:39:46;99379.16;;;19.68;31.17
71151;BME280;59071;42.138;24.768;2023-04-27T10:42:11;99394.47;;;20.19;32.09
71151;BME280;59071;42.138;24.768;2023-04-27T10:44:37;99398.59;;;19.60;32.99
71151;BME280;59071;42.138;24.768;2023-04-27T10:47:15;99401.81;;;19.05;33.90
71151;BME280;59071;42.138;24.768;2023-04-27T10:49:41;99392.16;;;19.40;33.25
71151;BME280;59071;42.138;24.768;2023-04-27T10:52:06;99402.66;;;19.37;33.04
71151;BME280;59071;42.138;24.768;2023-04-27T10:54:32;99406.94;;;19.07;33.15
71151;BME280;59071;42.138;24.768;2023-04-27T10:57:16;99405.63;;;19.56;31.87
71151;BME280;59071;42.138;24.768;2023-04-27T10:59:52;99408.06;;;19.88;31.55
71151;BME280;59071;42.138;24.768;2023-04-27T11:02:25;99407.22;;;19.98;31.13
71151;BME280;59071;42.138;24.768;2023-04-27T11:04:51;99412.09;;;19.65;30.90
71151;BME280;59071;42.138;24.768;2023-04-27T11:07:26;99409.13;;;19.41;31.36
71151;BME280;59071;42.138;24.768;2023-04-27T11:09:52;99418.00;;;19.05;31.87
71151;BME280;59071;42.138;24.768;2023-04-27T11:12:17;99415.03;;;19.17;30.93
71151;BME280;59071;42.138;24.768;2023-04-27T11:14:43;99425.00;;;19.01;31.54
71151;BME280;59071;42.138;24.768;2023-04-27T11:17:08;99413.13;;;18.92;31.46
71151;BME280;59071;42.138;24.768;2023-04-27T11:19:42;99415.31;;;19.36;30.58
71151;BME280;59071;42.138;24.768;2023-04-27T11:22:08;99417.41;;;20.26;29.68
71151;BME280;59071;42.138;24.768;2023-04-27T11:24:33;99415.81;;;20.20;30.37
71151;BME280;59071;42.138;24.768;2023-04-27T11:26:58;99412.63;;;19.87;30.44
71151;BME280;59071;42.138;24.768;2023-04-27T11:29:24;99414.31;;;20.54;28.81
71151;BME280;59071;42.138;24.768;2023-04-27T11:31:49;99417.72;;;20.09;29.94
71151;BME280;59071;42.138;24.768;2023-04-27T11:34:19;99425.47;;;20.37;29.77
71151;BME280;59071;42.138;24.768;2023-04-27T11:36:55;99421.06;;;20.66;29.53
71151;BME280;59071;42.138;24.768;2023-04-27T11:39:20;99417.00;;;20.59;29.37
71151;BME280;59071;42.138;24.768;2023-04-27T11:41:46;99430.97;;;20.81;29.35
71151;BME280;59071;42.138;24.768;2023-04-27T11:44:11;99420.69;;;20.13;28.30
71151;BME280;59071;42.138;24.768;2023-04-27T11:46:37;99422.09;;;19.90;28.49
71151;BME280;59071;42.138;24.768;2023-04-27T11:49:03;99413.25;;;20.44;28.24
71151;BME280;59071;42.138;24.768;2023-04-27T11:51:30;99417.34;;;20.37;28.65
71151;BME280;59071;42.138;24.768;2023-04-27T11:54:00;99419.13;;;20.72;28.19
71151;BME280;59071;42.138;24.768;2023-04-27T11:56:32;99410.63;;;20.34;27.77
71151;BME280;59071;42.138;24.768;2023-04-27T11:59:00;99408.47;;;20.96;27.11
71151;BME280;59071;42.138;24.768;2023-04-27T12:01:25;99406.56;;;20.92;28.67
71151;BME280;59071;42.138;24.768;2023-04-27T12:03:51;99411.44;;;20.29;28.53
71151;BME280;59071;42.138;24.768;2023-04-27T12:06:22;99411.25;;;20.10;28.45
71151;BME280;59071;42.138;24.768;2023-04-27T12:08:47;99408.25;;;20.82;28.08
71151;BME280;59071;42.138;24.768;2023-04-27T12:11:13;99410.47;;;21.15;27.50
71151;BME280;59071;42.138;24.768;2023-04-27T12:13:38;99406.00;;;20.35;27.29
71151;BME280;59071;42.138;24.768;2023-04-27T12:16:03;99414.47;;;20.02;28.70
71151;BME280;59071;42.138;24.768;2023-04-27T12:18:29;99415.28;;;20.83;27.34
71151;BME280;59071;42.138;24.768;2023-04-27T12:20:55;99399.09;;;21.57;27.25
71151;BME280;59071;42.138;24.768;2023-04-27T12:23:20;99410.56;;;21.44;26.77
71151;BME280;59071;42.138;24.768;2023-04-27T12:25:45;99403.22;;;21.79;26.63
71151;BME280;59071;42.138;24.768;2023-04-27T12:28:11;99411.44;;;22.22;25.61
71151;BME280;59071;42.138;24.768;2023-04-27T12:30:41;99400.25;;;21.75;25.98
71151;BME280;59071;42.138;24.768;2023-04-27T12:33:07;99409.81;;;21.33;26.04
71151;BME280;59071;42.138;24.768;2023-04-27T12:35:34;99406.75;;;22.03;25.45
71151;BME280;59071;42.138;24.768;2023-04-27T12:38:00;99406.00;;;21.98;25.77
71151;BME280;59071;42.138;24.768;2023-04-27T12:40:27;99402.44;;;22.51;25.05
71151;BME280;59071;42.138;24.768;2023-04-27T12:42:52;99406.06;;;22.84;24.90
71151;BME280;59071;42.138;24.768;2023-04-27T12:45:18;99401.28;;;22.57;25.14
71151;BME280;59071;42.138;24.768;2023-04-27T12:47:43;99398.34;;;22.53;25.09
71151;BME280;59071;42.138;24.768;2023-04-27T12:50:08;99391.50;;;21.83;25.45
71151;BME280;59071;42.138;24.768;2023-04-27T12:52:33;99403.88;;;21.65;27.01
71151;BME280;59071;42.138;24.768;2023-04-27T12:54:59;99405.53;;;20.87;26.83
71151;BME280;59071;42.138;24.768;2023-04-27T12:57:24;99402.16;;;21.45;26.85
71151;BME280;59071;42.138;24.768;2023-04-27T12:59:50;99402.13;;;22.04;26.76